Providence, Rhode Island
Traffic Map
Current Weather Conditions
Providence, Rhode Island
Overcast
Overcast
44°
Feels Like: 42°
Wind Chill: 42° Ceiling: 10000
Heat Index: 44° Visibility: 10mi
Dew Point: 33° Wind: 5mph
Humidity: 65% Direction: 210° (SSW)
Pressure: 30.18in Gusts: 0mph
Raw Report DataKPVD 300451Z 21004KT 10SM OVC100 07/01 A3018 RMK AO2 SLP220 T00670006 401280067
Traffic Incident Summary
Active as of:
Severity:
Category:
InformationThere was an issue retrieving the traffic information for this location. Please try a different location or try again shortly.
Advertisements
Track Severe Weather on mobile